createdAt,value
2018-05-15T00:01:02.912Z,56.10
2018-05-15T00:03:32.064Z,40.20
2018-05-15T00:06:01.185Z,36.27
2018-05-15T00:08:30.401Z,77.47
2018-05-15T00:10:59.624Z,87.23
2018-05-15T00:13:28.791Z,49.63
2018-05-15T00:15:57.912Z,48.63
2018-05-15T00:18:27.468Z,40.83
2018-05-15T00:20:56.605Z,41.50
2018-05-15T00:23:25.749Z,42.93
2018-05-15T00:25:54.873Z,44.40
2018-05-15T00:28:24.039Z,55.13
2018-05-15T00:30:53.205Z,69.37
2018-05-15T00:33:22.324Z,86.27
2018-05-15T00:35:51.512Z,94.50
2018-05-15T00:38:20.689Z,77.13
2018-05-15T00:40:49.824Z,65.93
2018-05-15T00:43:18.956Z,73.47
2018-05-15T00:45:48.093Z,89.83
2018-05-15T00:48:17.244Z,71.60
2018-05-15T00:50:46.392Z,66.17
2018-05-15T00:53:15.577Z,64.67
2018-05-15T00:55:44.733Z,70.90
2018-05-15T00:58:13.860Z,138.83
2018-05-15T01:00:43.010Z,163.40
2018-05-15T01:03:12.148Z,87.07
2018-05-15T01:05:41.286Z,57.13
2018-05-15T01:08:10.436Z,81.60
2018-05-15T01:10:39.580Z,69.83
2018-05-15T01:13:08.732Z,44.70
2018-05-15T01:15:37.889Z,42.47
2018-05-15T01:18:07.057Z,48.47
2018-05-15T01:20:36.644Z,66.30
2018-05-15T01:23:05.765Z,64.53
2018-05-15T01:25:34.909Z,53.37
2018-05-15T01:28:04.058Z,50.10
2018-05-15T01:30:33.245Z,58.57
2018-05-15T01:33:02.400Z,66.20
2018-05-15T01:35:31.552Z,84.97
2018-05-15T01:38:00.704Z,134.07
2018-05-15T01:40:29.832Z,153.70
2018-05-15T01:42:58.983Z,91.93
2018-05-15T01:45:28.127Z,52.70
2018-05-15T01:47:57.245Z,52.40
2018-05-15T01:50:26.430Z,65.63
2018-05-15T01:52:55.581Z,52.93
2018-05-15T01:55:24.712Z,71.20
2018-05-15T01:57:53.912Z,69.33
2018-05-15T02:00:23.055Z,63.03
2018-05-15T02:02:52.221Z,66.10
2018-05-15T02:05:21.364Z,79.40
2018-05-15T02:07:50.512Z,72.30
2018-05-15T02:10:19.701Z,82.30
2018-05-15T02:12:48.840Z,91.10
2018-05-15T02:15:18.010Z,80.77
2018-05-15T02:17:47.159Z,70.57
2018-05-15T02:20:16.291Z,72.63
2018-05-15T02:22:45.626Z,68.60
2018-05-15T02:25:14.795Z,69.13
2018-05-15T02:27:43.997Z,75.67
2018-05-15T02:30:13.110Z,94.17
2018-05-15T02:32:42.299Z,101.83
2018-05-15T02:35:11.589Z,179.10
2018-05-15T02:37:40.740Z,193.40
2018-05-15T02:40:09.886Z,198.23
2018-05-15T02:42:39.067Z,142.23
2018-05-15T02:45:08.211Z,155.80
2018-05-15T02:47:37.371Z,107.30
2018-05-15T02:50:06.538Z,100.50
2018-05-15T02:52:35.653Z,84.90
2018-05-15T02:55:04.772Z,73.33
2018-05-15T02:57:33.953Z,173.97
2018-05-15T03:00:03.069Z,168.90
2018-05-15T03:02:32.197Z,208.87
2018-05-15T03:05:01.376Z,199.27
2018-05-15T03:07:30.677Z,175.77
2018-05-15T03:09:59.822Z,170.60
2018-05-15T03:12:28.943Z,172.23
2018-05-15T03:14:58.139Z,154.40
2018-05-15T03:17:27.276Z,151.40
2018-05-15T03:19:56.421Z,114.27
2018-05-15T03:22:25.612Z,99.27
2018-05-15T03:24:54.727Z,71.03
2018-05-15T03:27:23.872Z,65.87
2018-05-15T03:29:53.012Z,65.53
2018-05-15T03:32:22.171Z,55.17
2018-05-15T03:34:51.300Z,57.03
2018-05-15T03:37:20.480Z,46.63
2018-05-15T03:39:49.597Z,42.50
2018-05-15T03:42:18.745Z,43.73
2018-05-15T03:44:47.937Z,44.77
2018-05-15T03:47:17.082Z,43.80
2018-05-15T03:49:46.248Z,44.83
2018-05-15T03:52:15.432Z,39.30
2018-05-15T03:54:44.577Z,45.77
2018-05-15T03:57:13.752Z,44.23
2018-05-15T03:59:42.908Z,44.73
2018-05-15T04:02:17.890Z,54.20
2018-05-15T04:04:52.984Z,54.10
2018-05-15T04:07:28.119Z,48.80
2018-05-15T04:09:57.241Z,53.10
2018-05-15T04:12:26.368Z,53.20
2018-05-15T04:14:55.543Z,49.70
2018-05-15T04:17:24.671Z,51.80
2018-05-15T04:19:53.796Z,54.97
2018-05-15T04:22:22.987Z,63.17
2018-05-15T04:24:52.177Z,130.13
2018-05-15T04:27:21.329Z,143.03
2018-05-15T04:29:50.479Z,144.53
2018-05-15T04:32:19.599Z,147.37
2018-05-15T04:34:48.762Z,142.70
2018-05-15T04:37:17.937Z,152.90
2018-05-15T04:39:47.061Z,120.00
2018-05-15T04:42:16.201Z,70.13
2018-05-15T04:44:45.365Z,78.97
2018-05-15T04:47:14.512Z,80.83
2018-05-15T04:49:43.651Z,143.30
2018-05-15T04:52:12.810Z,133.70
2018-05-15T04:54:41.959Z,135.03
2018-05-15T04:57:11.090Z,105.67
2018-05-15T04:59:40.261Z,70.67
2018-05-15T05:02:09.430Z,61.53
2018-05-15T05:04:38.565Z,52.40
2018-05-15T05:07:07.685Z,48.77
2018-05-15T05:09:36.868Z,50.03
2018-05-15T05:12:06.023Z,54.43
2018-05-15T05:14:35.202Z,52.73
2018-05-15T05:17:04.421Z,45.00
2018-05-15T05:19:33.560Z,42.93
2018-05-15T05:22:02.709Z,45.43
2018-05-15T05:24:31.843Z,46.90
2018-05-15T05:27:00.969Z,46.50
2018-05-15T05:29:30.141Z,50.93
2018-05-15T05:31:59.268Z,41.33
2018-05-15T05:34:28.408Z,36.50
2018-05-15T05:36:57.595Z,32.97
2018-05-15T05:39:26.719Z,31.80
2018-05-15T05:41:55.852Z,35.63
2018-05-15T05:44:25.003Z,35.37
2018-05-15T05:46:54.119Z,32.27
2018-05-15T05:49:28.221Z,32.80
2018-05-15T05:51:57.429Z,43.00
2018-05-15T05:54:26.498Z,49.20
2018-05-15T05:56:55.634Z,36.97
2018-05-15T05:59:24.811Z,33.63
2018-05-15T06:01:53.960Z,30.87
2018-05-15T06:04:23.131Z,33.80
2018-05-15T06:06:52.276Z,39.73
2018-05-15T06:09:21.403Z,40.07
2018-05-15T06:11:50.544Z,44.60
2018-05-15T06:14:19.853Z,29.73
2018-05-15T06:16:48.912Z,26.10
2018-05-15T06:19:18.060Z,20.73
2018-05-15T06:21:47.191Z,18.73
2018-05-15T06:24:16.344Z,24.10
2018-05-15T06:26:45.484Z,19.43
2018-05-15T06:29:14.648Z,16.23
2018-05-15T06:31:43.781Z,17.27
2018-05-15T06:34:12.911Z,30.53
2018-05-15T06:36:42.057Z,25.70
2018-05-15T06:39:11.208Z,22.47
2018-05-15T06:41:40.337Z,24.53
2018-05-15T06:44:09.459Z,22.90
2018-05-15T06:46:38.617Z,20.10
2018-05-15T06:49:07.732Z,20.60
2018-05-15T06:51:36.956Z,19.07
2018-05-15T06:54:06.106Z,18.27
2018-05-15T06:56:35.236Z,17.30
2018-05-15T06:59:04.406Z,16.33
2018-05-15T07:01:33.520Z,17.20
2018-05-15T07:04:02.640Z,17.83
2018-05-15T07:06:31.817Z,20.73
2018-05-15T07:09:00.967Z,29.90
2018-05-15T07:11:30.144Z,26.67
2018-05-15T07:13:59.376Z,26.53
2018-05-15T07:16:28.496Z,20.87
2018-05-15T07:18:57.639Z,16.77
2018-05-15T07:21:26.765Z,15.90
2018-05-15T07:23:55.943Z,16.50
2018-05-15T07:26:25.059Z,13.90
2018-05-15T07:28:54.179Z,18.03
2018-05-15T07:31:23.309Z,14.57
2018-05-15T07:33:52.457Z,14.77
2018-05-15T07:36:21.633Z,14.37
2018-05-15T07:38:50.729Z,14.57
2018-05-15T07:41:19.911Z,17.00
2018-05-15T07:43:49.024Z,18.13
2018-05-15T07:46:18.178Z,15.37
2018-05-15T07:48:47.372Z,18.10
2018-05-15T07:51:16.492Z,20.10
2018-05-15T07:53:45.688Z,20.80
2018-05-15T07:56:15.130Z,21.37
2018-05-15T07:58:44.260Z,22.20
2018-05-15T08:01:13.436Z,23.20
2018-05-15T08:03:42.626Z,19.80
2018-05-15T08:06:11.765Z,19.07
2018-05-15T08:08:40.915Z,13.40
2018-05-15T08:11:10.111Z,13.60
2018-05-15T08:13:39.261Z,13.13
2018-05-15T08:16:08.412Z,14.10
2018-05-15T08:18:37.553Z,18.10
2018-05-15T08:21:06.726Z,17.20
2018-05-15T08:23:35.879Z,21.10
2018-05-15T08:26:05.011Z,20.90
2018-05-15T08:28:34.170Z,21.23
2018-05-15T08:31:03.300Z,15.47
2018-05-15T08:33:32.497Z,15.10
2018-05-15T08:36:01.659Z,15.17
2018-05-15T08:38:30.772Z,15.50
2018-05-15T08:40:59.911Z,15.50
2018-05-15T08:43:29.049Z,16.43
2018-05-15T08:48:19.324Z,15.33
2018-05-15T08:50:48.496Z,16.33
2018-05-15T08:53:17.616Z,16.47
2018-05-15T08:55:46.822Z,15.07
2018-05-15T08:58:16.480Z,14.93
2018-05-15T09:00:45.600Z,17.90
2018-05-15T09:03:14.798Z,17.47
2018-05-15T09:05:43.953Z,17.23
2018-05-15T09:08:13.075Z,22.33
2018-05-15T09:10:42.229Z,16.10
2018-05-15T09:13:11.372Z,15.93
2018-05-15T09:15:40.536Z,16.37
2018-05-15T09:18:09.704Z,17.87
2018-05-15T09:20:38.830Z,15.40
2018-05-15T09:23:07.980Z,17.23
2018-05-15T09:25:37.136Z,17.87
2018-05-15T09:28:06.252Z,16.23
2018-05-15T09:30:35.439Z,15.30
2018-05-15T09:33:04.600Z,17.10
2018-05-15T09:35:33.764Z,15.47
2018-05-15T09:38:02.907Z,17.50
2018-05-15T09:40:32.065Z,17.03
2018-05-15T09:43:01.224Z,17.00
2018-05-15T09:45:30.378Z,17.77
2018-05-15T09:47:59.544Z,17.07
2018-05-15T09:50:28.691Z,20.50
2018-05-15T09:52:57.832Z,16.67
2018-05-15T09:55:27.016Z,19.13
2018-05-15T09:57:56.167Z,21.37
2018-05-15T10:00:31.136Z,18.63
2018-05-15T10:03:00.312Z,16.53
2018-05-15T10:05:29.454Z,19.97
2018-05-15T10:07:58.616Z,17.10
2018-05-15T10:10:27.767Z,21.27
2018-05-15T10:12:56.972Z,23.07
2018-05-15T10:15:26.132Z,17.83
2018-05-15T10:17:55.251Z,19.30
2018-05-15T10:20:24.395Z,19.30
2018-05-15T10:22:53.567Z,18.00
2018-05-15T10:25:22.727Z,18.07
2018-05-15T10:27:51.875Z,19.17
2018-05-15T10:30:21.049Z,18.53
2018-05-15T10:32:50.192Z,16.17
2018-05-15T10:35:19.319Z,18.50
2018-05-15T10:37:48.478Z,17.17
2018-05-15T10:40:17.597Z,15.43
2018-05-15T10:42:46.748Z,17.73
2018-05-15T10:45:15.888Z,18.60
2018-05-15T10:47:45.047Z,17.00
2018-05-15T10:50:14.227Z,18.33
2018-05-15T10:52:43.364Z,18.27
2018-05-15T10:55:12.572Z,18.40
2018-05-15T10:57:41.700Z,18.20
2018-05-15T11:00:10.889Z,16.37
2018-05-15T11:02:40.052Z,19.13
2018-05-15T11:05:09.239Z,17.27
2018-05-15T11:07:38.368Z,20.37
2018-05-15T11:10:07.491Z,16.60
2018-05-15T11:12:36.642Z,14.77
2018-05-15T11:15:05.835Z,15.00
2018-05-15T11:17:34.938Z,14.37
2018-05-15T11:20:09.880Z,26.73
2018-05-15T11:22:44.828Z,15.03
2018-05-15T11:25:14.039Z,15.50
2018-05-15T11:27:43.161Z,15.90
2018-05-15T11:30:12.454Z,15.03
2018-05-15T11:32:41.553Z,14.57
2018-05-15T11:35:10.685Z,17.10
2018-05-15T11:37:39.855Z,14.90
2018-05-15T11:40:08.967Z,15.70
2018-05-15T11:42:38.080Z,14.30
2018-05-15T11:45:07.253Z,14.20
2018-05-15T11:47:36.673Z,15.93
2018-05-15T11:50:06.638Z,18.27
2018-05-15T11:52:35.445Z,15.83
2018-05-15T11:55:03.928Z,16.93
2018-05-15T11:57:33.076Z,17.30
2018-05-15T12:00:02.284Z,15.50
2018-05-15T12:02:31.471Z,20.93
2018-05-15T12:05:00.548Z,14.60
2018-05-15T12:07:30.561Z,16.83
2018-05-15T12:09:59.697Z,16.70
2018-05-15T12:12:28.828Z,16.40
2018-05-15T12:14:58.367Z,16.37
2018-05-15T12:17:27.497Z,18.27
2018-05-15T12:19:56.633Z,15.40
2018-05-15T12:22:25.801Z,24.70
2018-05-15T12:24:54.932Z,23.83
2018-05-15T12:27:24.110Z,21.27
2018-05-15T12:29:53.300Z,24.37
2018-05-15T12:32:22.429Z,28.50
2018-05-15T12:34:51.619Z,23.20
2018-05-15T12:37:20.778Z,21.40
2018-05-15T12:39:50.029Z,23.23
2018-05-15T12:42:19.339Z,19.63
2018-05-15T12:44:48.459Z,22.40
2018-05-15T12:47:17.610Z,21.50
2018-05-15T12:49:46.740Z,24.00
2018-05-15T12:52:15.903Z,17.97
2018-05-15T12:54:45.053Z,17.07
2018-05-15T12:57:14.196Z,17.70
2018-05-15T12:59:43.360Z,12.30
2018-05-15T13:02:12.496Z,13.83
2018-05-15T13:04:41.642Z,16.50
2018-05-15T13:07:10.842Z,20.17
2018-05-15T13:09:40.009Z,21.37
2018-05-15T13:12:09.133Z,18.47
2018-05-15T13:14:38.277Z,14.23
2018-05-15T13:17:07.453Z,11.77
2018-05-15T13:19:36.600Z,11.07
2018-05-15T13:22:05.803Z,14.17
2018-05-15T13:24:35.013Z,16.33
2018-05-15T13:27:04.048Z,24.90
2018-05-15T13:29:33.232Z,22.77
2018-05-15T13:32:02.340Z,20.70
2018-05-15T13:34:31.500Z,20.30
2018-05-15T13:37:00.679Z,19.87
2018-05-15T13:39:31.660Z,18.60
2018-05-15T13:42:00.875Z,12.63
2018-05-15T13:44:30.027Z,16.17
2018-05-15T13:46:59.168Z,20.37
2018-05-15T13:49:28.307Z,23.10
2018-05-15T13:51:57.468Z,19.57
2018-05-15T13:54:26.610Z,15.87
2018-05-15T13:56:55.760Z,16.20
2018-05-15T13:59:25.017Z,17.90
2018-05-15T14:01:54.084Z,15.30
2018-05-15T14:04:23.265Z,16.47
2018-05-15T14:06:52.382Z,17.77
2018-05-15T14:09:21.518Z,22.47
2018-05-15T14:11:50.688Z,14.37
2018-05-15T14:14:19.876Z,12.57
2018-05-15T14:16:49.021Z,12.80
2018-05-15T14:19:18.240Z,12.80
2018-05-15T14:21:47.365Z,13.03
2018-05-15T14:24:16.516Z,12.03
2018-05-15T14:26:45.664Z,12.40
2018-05-15T14:29:14.836Z,17.90
2018-05-15T14:31:44.028Z,18.13
2018-05-15T14:34:13.145Z,21.07
2018-05-15T14:36:42.268Z,19.10
2018-05-15T14:39:11.455Z,20.07
2018-05-15T14:41:46.468Z,18.00
2018-05-15T14:44:15.713Z,14.17
2018-05-15T14:46:44.825Z,18.93
2018-05-15T14:49:13.999Z,12.00
2018-05-15T14:51:43.176Z,11.93
2018-05-15T14:54:12.325Z,11.10
2018-05-15T14:56:41.515Z,11.00
2018-05-15T14:59:10.668Z,12.00
2018-05-15T15:01:39.801Z,13.00
2018-05-15T15:04:08.941Z,11.90
2018-05-15T15:06:38.119Z,12.73
2018-05-15T15:09:07.229Z,19.27
2018-05-15T15:11:36.354Z,19.07
2018-05-15T15:14:05.539Z,17.37
2018-05-15T15:16:34.770Z,13.67
2018-05-15T15:19:03.918Z,13.33
2018-05-15T15:21:33.054Z,13.77
2018-05-15T15:24:02.200Z,14.77
2018-05-15T15:26:31.332Z,14.50
2018-05-15T15:29:00.856Z,13.50
2018-05-15T15:31:30.080Z,11.57
2018-05-15T15:33:59.255Z,14.10
2018-05-15T15:36:28.542Z,13.77
2018-05-15T15:38:57.663Z,15.60
2018-05-15T15:41:26.834Z,18.30
2018-05-15T15:43:55.985Z,19.10
2018-05-15T15:46:25.132Z,19.53
2018-05-15T15:48:54.290Z,17.07
2018-05-15T15:51:23.416Z,12.03
2018-05-15T15:53:52.568Z,11.17
2018-05-15T15:56:21.760Z,12.37
2018-05-15T15:58:50.903Z,12.60
2018-05-15T16:01:20.024Z,13.57
2018-05-15T16:03:49.183Z,13.17
2018-05-15T16:06:18.323Z,12.17
2018-05-15T16:08:47.480Z,11.70
2018-05-15T16:11:16.632Z,12.03
2018-05-15T16:13:45.766Z,12.27
2018-05-15T16:16:14.952Z,13.80
2018-05-15T16:18:44.079Z,12.40
2018-05-15T16:21:13.233Z,12.97
2018-05-15T16:23:42.382Z,13.00
2018-05-15T16:26:11.556Z,14.63
2018-05-15T16:28:40.759Z,13.10
2018-05-15T16:31:09.889Z,13.40
2018-05-15T16:33:39.046Z,13.37
2018-05-15T16:36:08.241Z,14.60
2018-05-15T16:38:37.451Z,20.40
2018-05-15T16:41:06.607Z,12.70
2018-05-15T16:43:35.860Z,16.23
2018-05-15T16:46:04.913Z,14.63
2018-05-15T16:48:34.060Z,19.33
2018-05-15T16:51:03.191Z,17.87
2018-05-15T16:53:32.328Z,23.50
2018-05-15T16:56:01.499Z,19.30
2018-05-15T16:58:30.613Z,18.23
2018-05-15T17:00:59.741Z,18.00
2018-05-15T17:03:28.891Z,18.47
2018-05-15T17:05:58.064Z,17.37
2018-05-15T17:08:27.200Z,17.40
2018-05-15T17:10:56.343Z,19.37
2018-05-15T17:13:25.583Z,18.30
2018-05-15T17:15:54.637Z,18.17
2018-05-15T17:18:23.782Z,17.37
2018-05-15T17:20:52.955Z,17.57
2018-05-15T17:23:22.121Z,16.00
2018-05-15T17:25:51.240Z,17.67
2018-05-15T17:28:20.382Z,17.70
2018-05-15T17:30:49.589Z,18.77
2018-05-15T17:33:18.709Z,19.97
2018-05-15T17:35:47.839Z,22.10
2018-05-15T17:38:16.983Z,20.40
2018-05-15T17:40:46.132Z,23.00
2018-05-15T17:43:15.281Z,19.17
2018-05-15T17:45:44.473Z,22.10
2018-05-15T17:48:13.704Z,29.80
2018-05-15T17:50:42.829Z,16.67
2018-05-15T17:53:12.080Z,17.30
2018-05-15T17:55:41.197Z,15.70
2018-05-15T17:58:10.359Z,15.97
2018-05-15T18:00:39.496Z,17.00
2018-05-15T18:03:08.662Z,13.50
2018-05-15T18:05:37.811Z,15.00
2018-05-15T18:08:06.980Z,14.63
2018-05-15T18:10:36.117Z,14.50
2018-05-15T18:13:05.220Z,16.20
2018-05-15T18:15:34.373Z,15.60
2018-05-15T18:18:03.515Z,17.00
2018-05-15T18:20:32.637Z,17.10
2018-05-15T18:23:01.796Z,17.50
2018-05-15T18:25:30.945Z,18.70
2018-05-15T18:28:00.068Z,17.90
2018-05-15T18:30:29.232Z,20.03
2018-05-15T18:32:58.440Z,17.80
2018-05-15T18:35:27.541Z,17.70
2018-05-15T18:37:56.697Z,17.63
2018-05-15T18:40:25.812Z,18.50
2018-05-15T18:42:54.961Z,17.73
2018-05-15T18:45:24.228Z,16.27
2018-05-15T18:47:53.297Z,15.17
2018-05-15T18:50:22.450Z,16.50
2018-05-15T18:52:52.094Z,15.13
2018-05-15T18:55:21.211Z,14.60
2018-05-15T18:57:50.355Z,15.20
2018-05-15T19:00:20.138Z,15.10
2018-05-15T19:02:49.300Z,15.27
2018-05-15T19:05:18.411Z,15.73
2018-05-15T19:07:47.536Z,17.10
2018-05-15T19:10:16.720Z,15.17
2018-05-15T19:12:45.936Z,16.77
2018-05-15T19:15:15.080Z,16.43
2018-05-15T19:17:44.264Z,16.83
2018-05-15T19:20:13.412Z,14.93
2018-05-15T19:22:42.613Z,17.00
2018-05-15T19:25:11.731Z,15.40
2018-05-15T19:27:40.882Z,17.23
2018-05-15T19:30:10.044Z,17.90
2018-05-15T19:32:39.160Z,15.90
2018-05-15T19:35:08.285Z,14.87
2018-05-15T19:37:37.461Z,15.10
2018-05-15T19:40:12.433Z,13.80
2018-05-15T19:42:41.598Z,15.40
2018-05-15T19:45:10.797Z,15.60
2018-05-15T19:47:39.943Z,14.77
2018-05-15T19:50:09.104Z,14.70
2018-05-15T19:52:38.260Z,13.80
2018-05-15T19:55:07.609Z,15.50
2018-05-15T19:57:36.774Z,15.30
2018-05-15T20:00:05.930Z,15.03
2018-05-15T20:02:35.125Z,14.70
2018-05-15T20:05:04.266Z,17.17
2018-05-15T20:07:33.417Z,16.67
2018-05-15T20:10:02.619Z,16.30
2018-05-15T20:12:31.735Z,16.80
2018-05-15T20:15:00.892Z,16.13
2018-05-15T20:17:30.073Z,16.33
2018-05-15T20:19:59.221Z,17.20
2018-05-15T20:22:28.368Z,16.20
2018-05-15T20:24:57.500Z,17.20
2018-05-15T20:27:26.663Z,17.33
2018-05-15T20:29:55.836Z,16.13
2018-05-15T20:32:24.992Z,16.00
2018-05-15T20:34:54.162Z,15.60
2018-05-15T20:37:23.298Z,16.30
2018-05-15T20:39:52.441Z,17.27
2018-05-15T20:42:21.611Z,17.47
2018-05-15T20:44:50.870Z,16.87
2018-05-15T20:47:20.003Z,17.40
2018-05-15T20:49:49.153Z,17.80
2018-05-15T20:52:18.441Z,18.37
2018-05-15T20:54:47.504Z,18.90
2018-05-15T20:57:16.679Z,19.50
2018-05-15T20:59:45.819Z,19.80
2018-05-15T21:02:15.003Z,19.90
2018-05-15T21:04:44.206Z,21.57
2018-05-15T21:07:13.319Z,22.80
2018-05-15T21:09:42.505Z,21.50
2018-05-15T21:12:11.620Z,21.80
2018-05-15T21:14:40.736Z,24.30
2018-05-15T21:17:09.925Z,21.10
2018-05-15T21:19:39.068Z,18.70
2018-05-15T21:22:08.237Z,20.90
2018-05-15T21:24:37.405Z,18.60
2018-05-15T21:27:06.557Z,21.63
2018-05-15T21:29:35.733Z,17.60
2018-05-15T21:32:04.870Z,17.63
2018-05-15T21:34:34.035Z,16.57
2018-05-15T21:37:03.182Z,15.40
2018-05-15T21:39:32.308Z,16.53
2018-05-15T21:42:01.500Z,15.97
2018-05-15T21:44:30.650Z,17.00
2018-05-15T21:46:59.772Z,17.00
2018-05-15T21:49:29.026Z,17.03
2018-05-15T21:51:58.203Z,15.90
2018-05-15T21:54:27.329Z,16.67
2018-05-15T21:56:56.493Z,17.57
2018-05-15T21:59:25.686Z,21.97
2018-05-15T22:01:54.834Z,30.33
2018-05-15T22:04:24.016Z,33.60
2018-05-15T22:06:53.187Z,36.37
2018-05-15T22:09:22.359Z,35.77
2018-05-15T22:11:57.387Z,34.17
2018-05-15T22:14:32.426Z,34.40
2018-05-15T22:17:07.843Z,36.70
2018-05-15T22:19:42.875Z,40.00
2018-05-15T22:22:14.711Z,46.10
2018-05-15T22:24:43.830Z,46.47
2018-05-15T22:27:12.980Z,33.60
2018-05-15T22:29:42.099Z,33.60
2018-05-15T22:32:11.221Z,35.10
2018-05-15T22:34:40.369Z,45.67
2018-05-15T22:37:09.518Z,44.50
2018-05-15T22:39:38.653Z,40.23
2018-05-15T22:42:07.840Z,33.57
2018-05-15T22:44:36.968Z,29.50
2018-05-15T22:47:06.087Z,29.10
2018-05-15T22:49:35.284Z,31.70
2018-05-15T22:52:04.405Z,42.90
2018-05-15T22:54:33.556Z,45.13
2018-05-15T22:57:02.705Z,44.23
2018-05-15T22:59:31.844Z,43.87
2018-05-15T23:02:00.990Z,31.23
2018-05-15T23:04:30.132Z,29.03
2018-05-15T23:06:59.265Z,28.23
2018-05-15T23:09:28.428Z,28.10
2018-05-15T23:11:57.563Z,27.97
2018-05-15T23:14:26.681Z,31.90
2018-05-15T23:16:55.859Z,31.80
2018-05-15T23:19:25.012Z,31.20
2018-05-15T23:24:42.363Z,31.00
2018-05-15T23:27:11.497Z,61.20
2018-05-15T23:29:40.624Z,51.50
2018-05-15T23:32:09.817Z,63.20
2018-05-15T23:34:38.960Z,67.97
2018-05-15T23:37:08.105Z,73.17
2018-05-15T23:39:37.260Z,70.80
2018-05-15T23:42:06.372Z,68.37
2018-05-15T23:44:35.493Z,60.37
2018-05-15T23:47:04.628Z,48.17
2018-05-15T23:49:33.749Z,60.13
2018-05-15T23:52:02.880Z,64.57
2018-05-15T23:54:32.055Z,59.07
2018-05-15T23:57:01.188Z,34.93
2018-05-15T23:59:30.345Z,34.83
